Airports Germany Hannover Airport

Hannover Airport (EDDV / HAJ)

Facts about Hannover Airport

Name Hannover Airport
City Hannover
Country Germany
ICAO code EDDV
IATA code HAJ
Elevation 55.7784 meters (183 feet)

Weather

METAR

Metar data retrieved Friday, 19 July 2024 at 23:25 UTC (9 minutes ago)

EDDV 192250Z AUTO 09003KT CAVOK 20/16 Q1016

Live traffic

Navigraph Charts (account required)